sensor_id;sensor_type;location;lat;lon;timestamp;P1;durP1;ratioP1;P2;durP2;ratioP2
72785;SDS011;60902;53.876;10.674;2022-07-21T00:00:06;23.33;;;18.30;;
72785;SDS011;60902;53.876;10.674;2022-07-21T00:00:20;23.27;;;18.70;;
72785;SDS011;60902;53.876;10.674;2022-07-21T00:00:32;21.58;;;18.15;;
72785;SDS011;60902;53.876;10.674;2022-07-21T00:00:44;21.75;;;18.77;;
72785;SDS011;60902;53.876;10.674;2022-07-21T00:00:56;21.42;;;18.55;;
72785;SDS011;60902;53.876;10.674;2022-07-21T00:01:07;21.92;;;19.02;;
72785;SDS011;60902;53.876;10.674;2022-07-21T00:01:24;21.77;;;18.23;;
72785;SDS011;60902;53.876;10.674;2022-07-21T00:01:36;20.30;;;17.42;;
72785;SDS011;60902;53.876;10.674;2022-07-21T00:01:51;20.77;;;17.38;;
72785;SDS011;60902;53.876;10.674;2022-07-21T00:02:03;22.20;;;18.15;;
72785;SDS011;60902;53.876;10.674;2022-07-21T00:02:14;22.15;;;17.83;;
72785;SDS011;60902;53.876;10.674;2022-07-21T00:02:25;22.17;;;17.55;;
72785;SDS011;60902;53.876;10.674;2022-07-21T00:02:36;20.58;;;17.25;;
72785;SDS011;60902;53.876;10.674;2022-07-21T00:02:47;20.63;;;17.43;;
72785;SDS011;60902;53.876;10.674;2022-07-21T00:02:58;21.10;;;17.35;;
72785;SDS011;60902;53.876;10.674;2022-07-21T00:03:11;21.73;;;17.75;;
72785;SDS011;60902;53.876;10.674;2022-07-21T00:03:22;22.98;;;18.08;;
72785;SDS011;60902;53.876;10.674;2022-07-21T00:03:33;23.40;;;18.63;;
72785;SDS011;60902;53.876;10.674;2022-07-21T00:03:47;23.33;;;18.13;;
72785;SDS011;60902;53.876;10.674;2022-07-21T00:03:58;22.02;;;17.80;;
72785;SDS011;60902;53.876;10.674;2022-07-21T00:04:09;21.95;;;17.48;;
72785;SDS011;60902;53.876;10.674;2022-07-21T00:04:20;20.77;;;17.00;;
72785;SDS011;60902;53.876;10.674;2022-07-21T00:04:31;20.92;;;17.30;;
72785;SDS011;60902;53.876;10.674;2022-07-21T00:04:42;20.67;;;17.63;;
72785;SDS011;60902;53.876;10.674;2022-07-21T00:04:54;20.25;;;17.73;;
72785;SDS011;60902;53.876;10.674;2022-07-21T00:05:06;19.90;;;17.50;;
72785;SDS011;60902;53.876;10.674;2022-07-21T00:05:17;20.50;;;17.45;;
72785;SDS011;60902;53.876;10.674;2022-07-21T00:05:31;22.83;;;17.83;;
72785;SDS011;60902;53.876;10.674;2022-07-21T00:05:44;23.77;;;18.35;;
72785;SDS011;60902;53.876;10.674;2022-07-21T00:05:57;21.50;;;17.65;;
72785;SDS011;60902;53.876;10.674;2022-07-21T00:06:11;20.83;;;17.90;;
72785;SDS011;60902;53.876;10.674;2022-07-21T00:16:17;23.85;;;18.13;;
72785;SDS011;60902;53.876;10.674;2022-07-21T00:16:28;23.67;;;18.08;;
72785;SDS011;60902;53.876;10.674;2022-07-21T00:16:40;23.92;;;18.02;;
72785;SDS011;60902;53.876;10.674;2022-07-21T00:16:52;22.30;;;18.08;;
72785;SDS011;60902;53.876;10.674;2022-07-21T00:17:04;21.92;;;18.42;;
72785;SDS011;60902;53.876;10.674;2022-07-21T00:17:15;22.05;;;18.40;;
72785;SDS011;60902;53.876;10.674;2022-07-21T00:17:27;23.08;;;18.85;;
72785;SDS011;60902;53.876;10.674;2022-07-21T00:17:41;23.77;;;18.77;;
72785;SDS011;60902;53.876;10.674;2022-07-21T00:18:10;23.35;;;18.38;;
72785;SDS011;60902;53.876;10.674;2022-07-21T00:18:24;24.27;;;19.02;;
72785;SDS011;60902;53.876;10.674;2022-07-21T00:27:05;22.20;;;17.85;;
72785;SDS011;60902;53.876;10.674;2022-07-21T00:27:31;24.52;;;19.40;;
72785;SDS011;60902;53.876;10.674;2022-07-21T00:27:44;22.83;;;18.60;;
72785;SDS011;60902;53.876;10.674;2022-07-21T00:27:55;22.00;;;17.90;;
72785;SDS011;60902;53.876;10.674;2022-07-21T00:28:06;20.67;;;17.73;;
72785;SDS011;60902;53.876;10.674;2022-07-21T00:28:19;21.20;;;18.40;;
72785;SDS011;60902;53.876;10.674;2022-07-21T00:28:31;23.00;;;18.75;;
72785;SDS011;60902;53.876;10.674;2022-07-21T00:28:45;23.75;;;19.05;;
72785;SDS011;60902;53.876;10.674;2022-07-21T00:28:57;22.70;;;18.98;;
72785;SDS011;60902;53.876;10.674;2022-07-21T00:29:09;21.77;;;18.20;;
72785;SDS011;60902;53.876;10.674;2022-07-21T00:29:20;21.83;;;18.08;;
72785;SDS011;60902;53.876;10.674;2022-07-21T00:29:32;22.27;;;18.40;;
72785;SDS011;60902;53.876;10.674;2022-07-21T00:29:43;22.60;;;18.60;;
72785;SDS011;60902;53.876;10.674;2022-07-21T01:08:53;21.25;;;18.40;;
72785;SDS011;60902;53.876;10.674;2022-07-21T01:09:04;22.65;;;18.70;;
72785;SDS011;60902;53.876;10.674;2022-07-21T01:09:15;22.77;;;18.52;;
72785;SDS011;60902;53.876;10.674;2022-07-21T01:09:27;22.95;;;18.52;;
72785;SDS011;60902;53.876;10.674;2022-07-21T01:09:38;22.65;;;18.25;;
72785;SDS011;60902;53.876;10.674;2022-07-21T01:09:49;22.48;;;18.23;;
72785;SDS011;60902;53.876;10.674;2022-07-21T01:10:00;22.10;;;18.63;;
72785;SDS011;60902;53.876;10.674;2022-07-21T01:10:13;21.95;;;18.55;;
72785;SDS011;60902;53.876;10.674;2022-07-21T01:10:26;22.02;;;18.30;;
72785;SDS011;60902;53.876;10.674;2022-07-21T01:10:37;21.85;;;18.35;;
72785;SDS011;60902;53.876;10.674;2022-07-21T01:10:50;21.85;;;18.40;;
72785;SDS011;60902;53.876;10.674;2022-07-21T01:11:01;22.25;;;18.50;;
72785;SDS011;60902;53.876;10.674;2022-07-21T01:11:13;21.80;;;17.48;;
72785;SDS011;60902;53.876;10.674;2022-07-21T01:11:25;23.02;;;18.17;;
72785;SDS011;60902;53.876;10.674;2022-07-21T01:11:36;22.80;;;18.30;;
72785;SDS011;60902;53.876;10.674;2022-07-21T01:11:48;22.20;;;18.20;;
72785;SDS011;60902;53.876;10.674;2022-07-21T01:11:59;22.00;;;17.98;;
72785;SDS011;60902;53.876;10.674;2022-07-21T01:12:11;22.60;;;18.40;;
72785;SDS011;60902;53.876;10.674;2022-07-21T01:12:23;23.02;;;18.75;;
72785;SDS011;60902;53.876;10.674;2022-07-21T01:12:34;23.15;;;18.98;;
72785;SDS011;60902;53.876;10.674;2022-07-21T01:12:46;24.05;;;19.02;;
72785;SDS011;60902;53.876;10.674;2022-07-21T01:12:57;24.30;;;18.92;;
72785;SDS011;60902;53.876;10.674;2022-07-21T01:13:08;24.35;;;19.35;;
72785;SDS011;60902;53.876;10.674;2022-07-21T01:13:20;22.95;;;18.88;;
72785;SDS011;60902;53.876;10.674;2022-07-21T01:13:32;21.60;;;18.42;;
72785;SDS011;60902;53.876;10.674;2022-07-21T01:13:43;22.63;;;18.35;;
72785;SDS011;60902;53.876;10.674;2022-07-21T01:13:55;22.75;;;18.50;;
72785;SDS011;60902;53.876;10.674;2022-07-21T01:14:06;23.20;;;18.63;;
72785;SDS011;60902;53.876;10.674;2022-07-21T01:14:18;22.45;;;18.33;;
72785;SDS011;60902;53.876;10.674;2022-07-21T01:14:29;22.65;;;18.63;;
72785;SDS011;60902;53.876;10.674;2022-07-21T01:14:39;22.13;;;18.25;;
72785;SDS011;60902;53.876;10.674;2022-07-21T01:14:50;21.88;;;18.25;;
72785;SDS011;60902;53.876;10.674;2022-07-21T01:15:06;21.90;;;18.02;;
72785;SDS011;60902;53.876;10.674;2022-07-21T01:15:19;22.83;;;18.80;;
72785;SDS011;60902;53.876;10.674;2022-07-21T01:15:31;23.30;;;18.73;;
72785;SDS011;60902;53.876;10.674;2022-07-21T01:15:42;23.45;;;19.05;;
72785;SDS011;60902;53.876;10.674;2022-07-21T01:15:53;23.23;;;19.45;;
72785;SDS011;60902;53.876;10.674;2022-07-21T01:16:05;23.50;;;19.50;;
72785;SDS011;60902;53.876;10.674;2022-07-21T01:16:16;23.90;;;19.50;;
72785;SDS011;60902;53.876;10.674;2022-07-21T01:16:27;23.05;;;19.13;;
72785;SDS011;60902;53.876;10.674;2022-07-21T01:16:40;22.60;;;18.43;;
72785;SDS011;60902;53.876;10.674;2022-07-21T01:16:51;23.30;;;18.27;;
72785;SDS011;60902;53.876;10.674;2022-07-21T01:17:02;23.48;;;18.60;;
72785;SDS011;60902;53.876;10.674;2022-07-21T01:17:13;22.07;;;18.97;;
72785;SDS011;60902;53.876;10.674;2022-07-21T01:17:25;22.80;;;19.17;;
72785;SDS011;60902;53.876;10.674;2022-07-21T01:17:36;22.83;;;18.58;;
72785;SDS011;60902;53.876;10.674;2022-07-21T01:17:48;23.40;;;18.52;;
72785;SDS011;60902;53.876;10.674;2022-07-21T01:18:00;22.95;;;18.40;;
72785;SDS011;60902;53.876;10.674;2022-07-21T01:18:13;21.83;;;17.60;;
72785;SDS011;60902;53.876;10.674;2022-07-21T01:18:24;21.10;;;17.98;;
72785;SDS011;60902;53.876;10.674;2022-07-21T01:18:36;22.85;;;19.17;;
72785;SDS011;60902;53.876;10.674;2022-07-21T01:18:47;23.85;;;20.23;;
72785;SDS011;60902;53.876;10.674;2022-07-21T01:18:58;23.10;;;19.45;;
72785;SDS011;60902;53.876;10.674;2022-07-21T01:19:09;22.30;;;19.02;;
72785;SDS011;60902;53.876;10.674;2022-07-21T01:19:21;23.00;;;18.80;;
72785;SDS011;60902;53.876;10.674;2022-07-21T01:19:32;22.48;;;18.23;;
72785;SDS011;60902;53.876;10.674;2022-07-21T01:19:43;23.17;;;18.30;;
72785;SDS011;60902;53.876;10.674;2022-07-21T01:19:54;21.45;;;17.77;;
72785;SDS011;60902;53.876;10.674;2022-07-21T01:20:11;20.90;;;18.10;;
72785;SDS011;60902;53.876;10.674;2022-07-21T01:20:23;23.35;;;18.55;;
72785;SDS011;60902;53.876;10.674;2022-07-21T01:20:36;24.35;;;18.77;;
72785;SDS011;60902;53.876;10.674;2022-07-21T01:20:52;22.55;;;18.73;;
72785;SDS011;60902;53.876;10.674;2022-07-21T01:21:09;21.85;;;18.85;;
72785;SDS011;60902;53.876;10.674;2022-07-21T01:21:30;22.35;;;18.55;;
72785;SDS011;60902;53.876;10.674;2022-07-21T01:21:43;22.13;;;18.20;;
72785;SDS011;60902;53.876;10.674;2022-07-21T01:21:55;23.15;;;18.92;;
72785;SDS011;60902;53.876;10.674;2022-07-21T01:22:07;22.35;;;18.55;;
72785;SDS011;60902;53.876;10.674;2022-07-21T01:22:18;22.40;;;18.37;;
72785;SDS011;60902;53.876;10.674;2022-07-21T01:22:30;23.23;;;19.02;;
72785;SDS011;60902;53.876;10.674;2022-07-21T01:22:42;22.98;;;19.42;;
72785;SDS011;60902;53.876;10.674;2022-07-21T01:22:55;22.02;;;18.52;;
72785;SDS011;60902;53.876;10.674;2022-07-21T01:23:06;21.85;;;18.10;;
72785;SDS011;60902;53.876;10.674;2022-07-21T01:23:20;22.33;;;18.95;;
72785;SDS011;60902;53.876;10.674;2022-07-21T01:23:31;22.25;;;18.85;;
72785;SDS011;60902;53.876;10.674;2022-07-21T01:23:42;22.45;;;18.02;;
72785;SDS011;60902;53.876;10.674;2022-07-21T01:23:53;22.67;;;17.88;;
72785;SDS011;60902;53.876;10.674;2022-07-21T01:24:05;23.73;;;18.65;;
72785;SDS011;60902;53.876;10.674;2022-07-21T01:24:17;23.52;;;18.40;;
72785;SDS011;60902;53.876;10.674;2022-07-21T01:24:28;23.05;;;18.15;;
72785;SDS011;60902;53.876;10.674;2022-07-21T01:24:39;23.05;;;18.38;;
72785;SDS011;60902;53.876;10.674;2022-07-21T01:24:52;24.17;;;19.00;;
72785;SDS011;60902;53.876;10.674;2022-07-21T01:25:05;23.90;;;18.77;;
72785;SDS011;60902;53.876;10.674;2022-07-21T01:25:17;23.45;;;18.75;;
72785;SDS011;60902;53.876;10.674;2022-07-21T01:25:29;22.45;;;18.50;;
72785;SDS011;60902;53.876;10.674;2022-07-21T01:25:42;21.50;;;18.05;;
72785;SDS011;60902;53.876;10.674;2022-07-21T01:25:57;21.80;;;18.10;;
72785;SDS011;60902;53.876;10.674;2022-07-21T01:26:08;20.52;;;17.25;;
72785;SDS011;60902;53.876;10.674;2022-07-21T01:26:20;22.42;;;17.42;;
72785;SDS011;60902;53.876;10.674;2022-07-21T01:26:31;22.67;;;17.52;;
72785;SDS011;60902;53.876;10.674;2022-07-21T01:26:51;22.05;;;18.58;;
72785;SDS011;60902;53.876;10.674;2022-07-21T01:27:02;22.52;;;18.65;;
72785;SDS011;60902;53.876;10.674;2022-07-21T01:27:13;23.00;;;18.90;;
72785;SDS011;60902;53.876;10.674;2022-07-21T01:27:25;23.63;;;19.03;;
72785;SDS011;60902;53.876;10.674;2022-07-21T01:27:36;22.95;;;19.13;;
72785;SDS011;60902;53.876;10.674;2022-07-21T01:27:48;22.42;;;19.40;;
72785;SDS011;60902;53.876;10.674;2022-07-21T01:27:59;21.88;;;18.63;;
72785;SDS011;60902;53.876;10.674;2022-07-21T01:28:10;22.83;;;18.85;;
72785;SDS011;60902;53.876;10.674;2022-07-21T01:28:21;23.52;;;17.92;;
72785;SDS011;60902;53.876;10.674;2022-07-21T01:28:32;24.50;;;18.95;;
72785;SDS011;60902;53.876;10.674;2022-07-21T01:28:43;24.20;;;18.93;;
72785;SDS011;60902;53.876;10.674;2022-07-21T01:28:54;23.92;;;19.50;;
72785;SDS011;60902;53.876;10.674;2022-07-21T01:29:06;23.42;;;18.60;;
72785;SDS011;60902;53.876;10.674;2022-07-21T01:29:18;24.17;;;19.13;;
72785;SDS011;60902;53.876;10.674;2022-07-21T01:29:31;22.63;;;18.87;;
72785;SDS011;60902;53.876;10.674;2022-07-21T01:29:42;20.98;;;18.65;;
72785;SDS011;60902;53.876;10.674;2022-07-21T01:29:53;19.98;;;17.85;;
72785;SDS011;60902;53.876;10.674;2022-07-21T01:30:07;21.60;;;17.92;;
72785;SDS011;60902;53.876;10.674;2022-07-21T01:30:19;23.08;;;18.23;;
72785;SDS011;60902;53.876;10.674;2022-07-21T01:30:30;23.27;;;18.13;;
72785;SDS011;60902;53.876;10.674;2022-07-21T01:30:41;21.55;;;17.65;;
72785;SDS011;60902;53.876;10.674;2022-07-21T01:30:52;21.38;;;17.60;;
72785;SDS011;60902;53.876;10.674;2022-07-21T01:31:04;21.17;;;18.15;;
72785;SDS011;60902;53.876;10.674;2022-07-21T01:31:15;22.08;;;18.60;;
72785;SDS011;60902;53.876;10.674;2022-07-21T01:31:26;23.75;;;19.23;;
72785;SDS011;60902;53.876;10.674;2022-07-21T01:31:38;23.80;;;19.58;;
72785;SDS011;60902;53.876;10.674;2022-07-21T01:31:52;22.13;;;19.07;;
72785;SDS011;60902;53.876;10.674;2022-07-21T01:32:04;21.55;;;18.98;;
72785;SDS011;60902;53.876;10.674;2022-07-21T01:32:16;21.77;;;18.45;;
72785;SDS011;60902;53.876;10.674;2022-07-21T01:32:27;23.33;;;18.88;;
72785;SDS011;60902;53.876;10.674;2022-07-21T01:32:40;22.75;;;18.88;;
72785;SDS011;60902;53.876;10.674;2022-07-21T01:32:53;22.23;;;18.95;;
72785;SDS011;60902;53.876;10.674;2022-07-21T01:33:04;21.63;;;18.65;;
72785;SDS011;60902;53.876;10.674;2022-07-21T01:33:15;23.23;;;18.77;;
72785;SDS011;60902;53.876;10.674;2022-07-21T01:33:26;22.98;;;18.55;;
72785;SDS011;60902;53.876;10.674;2022-07-21T01:33:37;23.80;;;18.92;;
72785;SDS011;60902;53.876;10.674;2022-07-21T01:33:48;22.30;;;19.00;;
72785;SDS011;60902;53.876;10.674;2022-07-21T01:34:00;22.33;;;19.02;;
72785;SDS011;60902;53.876;10.674;2022-07-21T01:34:11;21.73;;;18.60;;
72785;SDS011;60902;53.876;10.674;2022-07-21T01:34:23;21.00;;;18.38;;
72785;SDS011;60902;53.876;10.674;2022-07-21T01:34:34;21.23;;;17.90;;
72785;SDS011;60902;53.876;10.674;2022-07-21T01:34:45;22.25;;;18.15;;
72785;SDS011;60902;53.876;10.674;2022-07-21T01:34:56;23.40;;;17.92;;
72785;SDS011;60902;53.876;10.674;2022-07-21T01:35:08;22.90;;;18.42;;
72785;SDS011;60902;53.876;10.674;2022-07-21T01:35:21;21.33;;;17.77;;
72785;SDS011;60902;53.876;10.674;2022-07-21T01:35:33;22.23;;;18.33;;
72785;SDS011;60902;53.876;10.674;2022-07-21T01:35:44;21.48;;;18.30;;
72785;SDS011;60902;53.876;10.674;2022-07-21T01:35:55;22.05;;;18.90;;
72785;SDS011;60902;53.876;10.674;2022-07-21T01:36:06;21.33;;;18.70;;
72785;SDS011;60902;53.876;10.674;2022-07-21T01:36:19;20.83;;;18.40;;
72785;SDS011;60902;53.876;10.674;2022-07-21T01:36:30;21.48;;;18.20;;
72785;SDS011;60902;53.876;10.674;2022-07-21T01:36:41;21.17;;;17.70;;
72785;SDS011;60902;53.876;10.674;2022-07-21T01:36:52;21.83;;;17.98;;
72785;SDS011;60902;53.876;10.674;2022-07-21T01:37:03;21.88;;;18.05;;
72785;SDS011;60902;53.876;10.674;2022-07-21T01:37:14;23.23;;;18.65;;
72785;SDS011;60902;53.876;10.674;2022-07-21T01:37:27;22.65;;;18.23;;
72785;SDS011;60902;53.876;10.674;2022-07-21T01:37:41;22.10;;;18.05;;
72785;SDS011;60902;53.876;10.674;2022-07-21T01:37:53;21.98;;;18.38;;
72785;SDS011;60902;53.876;10.674;2022-07-21T01:38:05;21.77;;;18.60;;
72785;SDS011;60902;53.876;10.674;2022-07-21T01:38:36;22.23;;;18.00;;
72785;SDS011;60902;53.876;10.674;2022-07-21T01:39:06;21.83;;;17.42;;
72785;SDS011;60902;53.876;10.674;2022-07-21T01:39:36;22.10;;;18.15;;
72785;SDS011;60902;53.876;10.674;2022-07-21T01:40:06;21.23;;;17.75;;
72785;SDS011;60902;53.876;10.674;2022-07-21T01:40:37;21.85;;;18.52;;
72785;SDS011;60902;53.876;10.674;2022-07-21T01:41:06;22.42;;;17.77;;
72785;SDS011;60902;53.876;10.674;2022-07-21T01:41:36;21.85;;;19.33;;
72785;SDS011;60902;53.876;10.674;2022-07-21T01:41:48;20.58;;;18.38;;
72785;SDS011;60902;53.876;10.674;2022-07-21T01:41:59;21.30;;;18.10;;
72785;SDS011;60902;53.876;10.674;2022-07-21T01:42:11;22.33;;;17.75;;
72785;SDS011;60902;53.876;10.674;2022-07-21T01:42:22;22.42;;;18.23;;
72785;SDS011;60902;53.876;10.674;2022-07-21T01:42:33;21.10;;;18.27;;
72785;SDS011;60902;53.876;10.674;2022-07-21T01:42:44;20.83;;;18.42;;
72785;SDS011;60902;53.876;10.674;2022-07-21T01:42:55;21.30;;;18.02;;
72785;SDS011;60902;53.876;10.674;2022-07-21T01:43:07;22.10;;;18.02;;
72785;SDS011;60902;53.876;10.674;2022-07-21T01:43:18;22.52;;;17.73;;
72785;SDS011;60902;53.876;10.674;2022-07-21T01:43:29;22.60;;;17.88;;
72785;SDS011;60902;53.876;10.674;2022-07-21T01:43:40;22.05;;;18.25;;
72785;SDS011;60902;53.876;10.674;2022-07-21T01:43:51;20.35;;;17.63;;
72785;SDS011;60902;53.876;10.674;2022-07-21T01:44:02;20.20;;;17.60;;
72785;SDS011;60902;53.876;10.674;2022-07-21T01:44:15;20.55;;;17.35;;
72785;SDS011;60902;53.876;10.674;2022-07-21T01:44:26;20.92;;;17.33;;
72785;SDS011;60902;53.876;10.674;2022-07-21T01:44:38;20.85;;;17.80;;
72785;SDS011;60902;53.876;10.674;2022-07-21T01:44:49;21.98;;;18.55;;
72785;SDS011;60902;53.876;10.674;2022-07-21T01:45:00;22.13;;;18.52;;
72785;SDS011;60902;53.876;10.674;2022-07-21T01:45:11;22.48;;;17.77;;
72785;SDS011;60902;53.876;10.674;2022-07-21T01:45:22;23.23;;;17.50;;
72785;SDS011;60902;53.876;10.674;2022-07-21T01:45:33;22.83;;;17.13;;
72785;SDS011;60902;53.876;10.674;2022-07-21T01:45:45;20.80;;;17.48;;
72785;SDS011;60902;53.876;10.674;2022-07-21T01:45:56;20.45;;;17.58;;
72785;SDS011;60902;53.876;10.674;2022-07-21T01:46:09;21.20;;;17.85;;
72785;SDS011;60902;53.876;10.674;2022-07-21T01:46:21;23.63;;;18.58;;
72785;SDS011;60902;53.876;10.674;2022-07-21T01:46:32;22.45;;;18.35;;
72785;SDS011;60902;53.876;10.674;2022-07-21T01:46:46;21.35;;;17.92;;
72785;SDS011;60902;53.876;10.674;2022-07-21T01:46:59;21.20;;;17.65;;
72785;SDS011;60902;53.876;10.674;2022-07-21T01:47:11;21.60;;;17.50;;
72785;SDS011;60902;53.876;10.674;2022-07-21T01:47:22;21.13;;;17.50;;
72785;SDS011;60902;53.876;10.674;2022-07-21T01:47:33;21.23;;;18.20;;
72785;SDS011;60902;53.876;10.674;2022-07-21T01:47:45;21.20;;;18.08;;
72785;SDS011;60902;53.876;10.674;2022-07-21T01:47:56;21.20;;;18.00;;
72785;SDS011;60902;53.876;10.674;2022-07-21T01:48:07;21.60;;;17.63;;
72785;SDS011;60902;53.876;10.674;2022-07-21T01:48:18;20.80;;;17.63;;
72785;SDS011;60902;53.876;10.674;2022-07-21T01:48:31;21.10;;;18.25;;
72785;SDS011;60902;53.876;10.674;2022-07-21T01:48:43;22.50;;;18.20;;
72785;SDS011;60902;53.876;10.674;2022-07-21T01:48:55;22.20;;;18.15;;
72785;SDS011;60902;53.876;10.674;2022-07-21T01:49:06;23.02;;;18.23;;
72785;SDS011;60902;53.876;10.674;2022-07-21T01:49:18;23.02;;;18.38;;
72785;SDS011;60902;53.876;10.674;2022-07-21T01:49:31;22.48;;;17.83;;
72785;SDS011;60902;53.876;10.674;2022-07-21T01:49:43;21.20;;;17.95;;
72785;SDS011;60902;53.876;10.674;2022-07-21T01:49:54;22.10;;;18.30;;
72785;SDS011;60902;53.876;10.674;2022-07-21T01:50:05;22.00;;;18.13;;
72785;SDS011;60902;53.876;10.674;2022-07-21T01:50:18;22.95;;;18.05;;
72785;SDS011;60902;53.876;10.674;2022-07-21T01:50:31;22.58;;;18.00;;
72785;SDS011;60902;53.876;10.674;2022-07-21T01:50:42;22.80;;;18.00;;
72785;SDS011;60902;53.876;10.674;2022-07-21T01:50:53;21.67;;;17.90;;
72785;SDS011;60902;53.876;10.674;2022-07-21T01:51:05;22.90;;;17.67;;
72785;SDS011;60902;53.876;10.674;2022-07-21T01:51:16;23.02;;;18.25;;
72785;SDS011;60902;53.876;10.674;2022-07-21T01:51:28;23.30;;;18.20;;
72785;SDS011;60902;53.876;10.674;2022-07-21T01:51:39;21.58;;;18.25;;
72785;SDS011;60902;53.876;10.674;2022-07-21T01:51:51;21.50;;;17.90;;
72785;SDS011;60902;53.876;10.674;2022-07-21T01:52:02;21.73;;;17.48;;
72785;SDS011;60902;53.876;10.674;2022-07-21T01:52:13;21.23;;;17.60;;
72785;SDS011;60902;53.876;10.674;2022-07-21T01:52:25;21.50;;;18.00;;
72785;SDS011;60902;53.876;10.674;2022-07-21T01:52:36;20.38;;;17.77;;
72785;SDS011;60902;53.876;10.674;2022-07-21T01:52:47;20.80;;;17.77;;
72785;SDS011;60902;53.876;10.674;2022-07-21T01:52:58;22.15;;;17.77;;
72785;SDS011;60902;53.876;10.674;2022-07-21T01:53:09;22.73;;;17.88;;
72785;SDS011;60902;53.876;10.674;2022-07-21T01:53:20;22.48;;;17.67;;
72785;SDS011;60902;53.876;10.674;2022-07-21T01:53:31;23.20;;;18.05;;
72785;SDS011;60902;53.876;10.674;2022-07-21T01:53:42;21.77;;;17.58;;
72785;SDS011;60902;53.876;10.674;2022-07-21T01:53:54;21.85;;;17.80;;
72785;SDS011;60902;53.876;10.674;2022-07-21T01:54:05;21.33;;;18.20;;
72785;SDS011;60902;53.876;10.674;2022-07-21T01:54:17;21.30;;;18.00;;
72785;SDS011;60902;53.876;10.674;2022-07-21T01:54:28;21.02;;;17.83;;
72785;SDS011;60902;53.876;10.674;2022-07-21T01:54:39;22.00;;;18.23;;
72785;SDS011;60902;53.876;10.674;2022-07-21T01:54:50;22.20;;;18.88;;
72785;SDS011;60902;53.876;10.674;2022-07-21T01:55:03;21.30;;;18.37;;
72785;SDS011;60902;53.876;10.674;2022-07-21T01:55:17;21.52;;;17.77;;
72785;SDS011;60902;53.876;10.674;2022-07-21T01:55:54;20.63;;;17.27;;
72785;SDS011;60902;53.876;10.674;2022-07-21T01:57:51;21.50;;;18.67;;
72785;SDS011;60902;53.876;10.674;2022-07-21T01:58:25;21.73;;;18.63;;
72785;SDS011;60902;53.876;10.674;2022-07-21T01:58:37;21.63;;;18.13;;
72785;SDS011;60902;53.876;10.674;2022-07-21T01:58:48;20.95;;;17.58;;
72785;SDS011;60902;53.876;10.674;2022-07-21T01:59:43;22.75;;;18.02;;
72785;SDS011;60902;53.876;10.674;2022-07-21T01:59:56;22.48;;;18.27;;
72785;SDS011;60902;53.876;10.674;2022-07-21T02:00:14;23.60;;;18.50;;
72785;SDS011;60902;53.876;10.674;2022-07-21T02:01:04;20.63;;;17.98;;
72785;SDS011;60902;53.876;10.674;2022-07-21T02:03:32;21.88;;;18.38;;
72785;SDS011;60902;53.876;10.674;2022-07-21T02:03:44;21.50;;;18.02;;
72785;SDS011;60902;53.876;10.674;2022-07-21T02:04:01;21.55;;;17.35;;
72785;SDS011;60902;53.876;10.674;2022-07-21T02:04:15;22.00;;;17.77;;
72785;SDS011;60902;53.876;10.674;2022-07-21T02:05:10;23.20;;;18.35;;
72785;SDS011;60902;53.876;10.674;2022-07-21T02:05:44;21.58;;;18.02;;
72785;SDS011;60902;53.876;10.674;2022-07-21T02:06:03;22.23;;;17.85;;
72785;SDS011;60902;53.876;10.674;2022-07-21T02:06:47;22.80;;;18.80;;
72785;SDS011;60902;53.876;10.674;2022-07-21T02:07:05;21.63;;;17.77;;
72785;SDS011;60902;53.876;10.674;2022-07-21T02:07:19;21.85;;;17.88;;
72785;SDS011;60902;53.876;10.674;2022-07-21T02:07:35;21.73;;;17.42;;
72785;SDS011;60902;53.876;10.674;2022-07-21T02:09:38;21.85;;;18.83;;
72785;SDS011;60902;53.876;10.674;2022-07-21T02:09:52;21.75;;;17.75;;
72785;SDS011;60902;53.876;10.674;2022-07-21T02:12:41;22.02;;;18.42;;
72785;SDS011;60902;53.876;10.674;2022-07-21T02:12:53;21.50;;;18.05;;
72785;SDS011;60902;53.876;10.674;2022-07-21T02:13:04;21.10;;;17.70;;
72785;SDS011;60902;53.876;10.674;2022-07-21T02:13:18;20.55;;;17.45;;
72785;SDS011;60902;53.876;10.674;2022-07-21T02:13:29;20.50;;;17.77;;
72785;SDS011;60902;53.876;10.674;2022-07-21T02:13:41;22.13;;;18.10;;
72785;SDS011;60902;53.876;10.674;2022-07-21T02:13:53;21.27;;;17.65;;
72785;SDS011;60902;53.876;10.674;2022-07-21T02:14:07;21.35;;;18.08;;
72785;SDS011;60902;53.876;10.674;2022-07-21T02:14:20;22.00;;;17.92;;
72785;SDS011;60902;53.876;10.674;2022-07-21T02:14:42;21.37;;;18.57;;
72785;SDS011;60902;53.876;10.674;2022-07-21T02:14:57;21.67;;;18.73;;
72785;SDS011;60902;53.876;10.674;2022-07-21T02:15:09;22.52;;;18.48;;
72785;SDS011;60902;53.876;10.674;2022-07-21T02:15:21;21.73;;;18.30;;
72785;SDS011;60902;53.876;10.674;2022-07-21T02:15:33;21.40;;;17.98;;
72785;SDS011;60902;53.876;10.674;2022-07-21T02:15:44;21.15;;;17.98;;
72785;SDS011;60902;53.876;10.674;2022-07-21T02:15:57;21.70;;;18.25;;
72785;SDS011;60902;53.876;10.674;2022-07-21T02:16:08;20.63;;;17.98;;
72785;SDS011;60902;53.876;10.674;2022-07-21T02:16:19;20.42;;;17.30;;
72785;SDS011;60902;53.876;10.674;2022-07-21T02:16:30;20.50;;;17.23;;
72785;SDS011;60902;53.876;10.674;2022-07-21T02:16:42;22.27;;;18.10;;
72785;SDS011;60902;53.876;10.674;2022-07-21T02:16:53;22.02;;;18.25;;
72785;SDS011;60902;53.876;10.674;2022-07-21T02:17:04;21.45;;;17.95;;
72785;SDS011;60902;53.876;10.674;2022-07-21T02:17:15;20.83;;;17.38;;
72785;SDS011;60902;53.876;10.674;2022-07-21T02:17:26;20.98;;;17.35;;
72785;SDS011;60902;53.876;10.674;2022-07-21T02:17:37;20.98;;;17.45;;
72785;SDS011;60902;53.876;10.674;2022-07-21T02:17:48;21.10;;;17.75;;
72785;SDS011;60902;53.876;10.674;2022-07-21T02:18:00;20.83;;;18.15;;
72785;SDS011;60902;53.876;10.674;2022-07-21T02:18:11;21.80;;;17.83;;
72785;SDS011;60902;53.876;10.674;2022-07-21T02:18:22;22.10;;;18.10;;
72785;SDS011;60902;53.876;10.674;2022-07-21T02:18:33;22.27;;;18.30;;
72785;SDS011;60902;53.876;10.674;2022-07-21T02:18:45;21.20;;;18.60;;
72785;SDS011;60902;53.876;10.674;2022-07-21T02:18:57;21.55;;;18.35;;
72785;SDS011;60902;53.876;10.674;2022-07-21T02:19:08;21.17;;;18.08;;
72785;SDS011;60902;53.876;10.674;2022-07-21T02:19:19;21.10;;;18.05;;
72785;SDS011;60902;53.876;10.674;2022-07-21T02:19:32;21.08;;;17.75;;
72785;SDS011;60902;53.876;10.674;2022-07-21T02:19:43;22.75;;;17.40;;
72785;SDS011;60902;53.876;10.674;2022-07-21T02:19:54;23.47;;;17.47;;
72785;SDS011;60902;53.876;10.674;2022-07-21T02:20:05;22.40;;;17.58;;
72785;SDS011;60902;53.876;10.674;2022-07-21T02:20:17;21.42;;;17.17;;
72785;SDS011;60902;53.876;10.674;2022-07-21T02:20:28;21.77;;;17.50;;
72785;SDS011;60902;53.876;10.674;2022-07-21T02:20:39;21.27;;;17.52;;
72785;SDS011;60902;53.876;10.674;2022-07-21T02:20:51;20.65;;;17.45;;
72785;SDS011;60902;53.876;10.674;2022-07-21T02:21:02;21.48;;;17.60;;
72785;SDS011;60902;53.876;10.674;2022-07-21T02:21:14;21.38;;;17.88;;